Time;durP1;ratioP1;P1;durP2;ratioP2;P2;SDS_P1;SDS_P2;PMS_P1;PMS_P2;Temp;Humidity;BMP_temperature;BMP_pressure;BME280_temperature;BME280_humidity;BME280_pressure;Samples;Min_cycle;Max_cycle;Signal;HPM_P1;HPM_P2
2021/03/27 00:01:44;;;;;;;13.15;2.10;;;;;;;;;;4992215;28;20057;-76
2021/03/27 00:04:10;;;;;;;14.32;2.47;;;;;;;;;;4987771;28;20401;-74
2021/03/27 00:06:39;;;;;;;14.65;2.22;;;;;;;;;;4989132;28;20022;-74
2021/03/27 00:09:10;;;;;;;17.88;2.38;;;;;;;;;;4988639;28;20038;-75
2021/03/27 00:11:51;;;;;;;17.02;2.35;;;;;;;;;;4986452;28;20202;-75
2021/03/27 00:14:21;;;;;;;11.15;2.38;;;;;;;;;;4983200;28;20096;-74
2021/03/27 00:17:00;;;;;;;20.88;2.80;;;;;;;;;;4989332;28;20054;-74
2021/03/27 00:19:30;;;;;;;15.48;1.92;;;;;;;;;;4985782;28;20030;-74
2021/03/27 00:21:58;;;;;;;11.27;2.20;;;;;;;;;;4980335;28;20113;-74
2021/03/27 00:24:30;;;;;;;15.13;2.15;;;;;;;;;;4987814;28;20026;-76
2021/03/27 00:27:08;;;;;;;14.63;1.85;;;;;;;;;;4983973;28;20038;-75
2021/03/27 00:29:36;;;;;;;8.98;2.13;;;;;;;;;;4977665;28;20046;-74
2021/03/27 00:32:06;;;;;;;16.05;2.65;;;;;;;;;;4986118;28;20065;-75
2021/03/27 00:34:33;;;;;;;9.18;1.95;;;;;;;;;;4979760;28;20256;-74
2021/03/27 00:37:04;;;;;;;15.30;2.53;;;;;;;;;;4983831;28;20054;-74
2021/03/27 00:39:30;;;;;;;17.13;2.42;;;;;;;;;;4987994;28;20032;-75
2021/03/27 00:41:56;;;;;;;8.57;1.65;;;;;;;;;;4980932;28;20488;-72
2021/03/27 00:44:26;;;;;;;14.40;1.85;;;;;;;;;;4980798;28;20488;-75
2021/03/27 00:46:52;;;;;;;10.38;1.65;;;;;;;;;;4982466;28;20262;-72
2021/03/27 00:49:21;;;;;;;6.93;1.45;;;;;;;;;;4985079;28;20096;-73
2021/03/27 00:51:50;;;;;;;16.80;2.30;;;;;;;;;;4992786;28;20042;-75
2021/03/27 00:54:38;;;;;;;13.68;2.28;;;;;;;;;;4987950;28;20018;-74
2021/03/27 00:57:07;;;;;;;16.63;2.53;;;;;;;;;;4987792;28;20026;-74
2021/03/27 00:59:36;;;;;;;15.20;1.63;;;;;;;;;;4997484;28;20404;-73
2021/03/27 01:02:04;;;;;;;9.25;2.00;;;;;;;;;;4988341;28;20030;-75
2021/03/27 01:04:31;;;;;;;7.82;0.95;;;;;;;;;;4987976;28;20032;-69
2021/03/27 01:07:06;;;;;;;9.77;1.83;;;;;;;;;;4973498;28;20030;-74
2021/03/27 01:09:35;;;;;;;17.98;2.97;;;;;;;;;;4982322;28;20023;-73
2021/03/27 01:12:07;;;;;;;10.15;1.88;;;;;;;;;;4989447;28;20132;-73
2021/03/27 01:14:52;;;;;;;17.33;2.25;;;;;;;;;;4986733;28;20033;-74
2021/03/27 01:17:22;;;;;;;27.92;2.42;;;;;;;;;;4978125;28;20106;-74
2021/03/27 01:19:50;;;;;;;18.80;2.53;;;;;;;;;;4988207;28;20034;-72
2021/03/27 01:22:17;;;;;;;12.20;2.78;;;;;;;;;;4990458;28;20584;-73
2021/03/27 01:24:43;;;;;;;21.55;4.00;;;;;;;;;;4982230;28;20034;-73
2021/03/27 01:27:23;;;;;;;15.30;3.08;;;;;;;;;;4985187;28;20031;-75
2021/03/27 01:29:58;;;;;;;12.18;2.92;;;;;;;;;;4982154;28;20042;-73
2021/03/27 01:32:40;;;;;;;14.40;2.65;;;;;;;;;;4983631;28;20038;-73
2021/03/27 01:35:15;;;;;;;8.02;1.70;;;;;;;;;;4982062;28;20027;-71
2021/03/27 01:37:41;;;;;;;11.90;1.67;;;;;;;;;;4987710;28;20088;-73
2021/03/27 01:40:10;;;;;;;9.75;2.20;;;;;;;;;;4987572;28;20027;-68
2021/03/27 01:42:37;;;;;;;20.85;3.60;;;;;;;;;;4984406;28;20595;-70
2021/03/27 01:45:05;;;;;;;10.13;2.30;;;;;;;;;;4992816;28;20022;-71
2021/03/27 01:47:32;;;;;;;9.98;2.50;;;;;;;;;;4985832;28;20019;-70
2021/03/27 01:50:01;;;;;;;12.60;2.63;;;;;;;;;;4985817;28;20026;-71
2021/03/27 01:52:34;;;;;;;15.55;4.28;;;;;;;;;;4981853;28;20026;-72
2021/03/27 01:55:03;;;;;;;10.88;2.20;;;;;;;;;;4978156;28;20463;-70
2021/03/27 01:57:48;;;;;;;19.17;2.83;;;;;;;;;;4977445;28;20511;-72
2021/03/27 02:00:18;;;;;;;15.55;1.77;;;;;;;;;;4989661;28;20085;-70
2021/03/27 02:02:53;;;;;;;10.93;1.58;;;;;;;;;;4981453;28;20065;-71
2021/03/27 02:05:22;;;;;;;12.10;2.15;;;;;;;;;;4988094;28;20030;-70
2021/03/27 02:07:58;;;;;;;13.32;2.40;;;;;;;;;;4983195;28;20404;-70
2021/03/27 02:10:27;;;;;;;11.60;2.08;;;;;;;;;;4984552;28;20039;-71
2021/03/27 02:12:59;;;;;;;29.92;2.80;;;;;;;;;;4987856;28;20034;-70
2021/03/27 02:16:01;;;;;;;12.63;2.08;;;;;;;;;;4981218;28;20014;-72
2021/03/27 02:18:33;;;;;;;18.15;2.53;;;;;;;;;;4927569;29;20482;-69
2021/03/27 02:21:07;;;;;;;14.45;1.90;;;;;;;;;;4976203;28;20050;-68
2021/03/27 02:23:36;;;;;;;11.30;2.05;;;;;;;;;;4976871;28;20110;-70
2021/03/27 02:26:05;;;;;;;20.63;2.70;;;;;;;;;;4985940;28;20057;-71
2021/03/27 02:28:31;;;;;;;19.80;3.67;;;;;;;;;;4977458;28;20030;-72
2021/03/27 02:31:08;;;;;;;11.98;1.90;;;;;;;;;;4973524;28;20038;-71
2021/03/27 02:33:49;;;;;;;12.13;2.22;;;;;;;;;;4982009;28;20556;-71
2021/03/27 02:36:22;;;;;;;9.67;1.97;;;;;;;;;;4976899;28;20041;-69
2021/03/27 02:38:51;;;;;;;16.80;2.80;;;;;;;;;;4974994;28;20033;-71
2021/03/27 02:41:17;;;;;;;13.93;2.45;;;;;;;;;;4980306;28;20030;-73
2021/03/27 02:43:48;;;;;;;24.65;5.03;;;;;;;;;;4976842;28;20426;-72
2021/03/27 02:46:23;;;;;;;25.77;4.47;;;;;;;;;;4985507;28;20034;-71
2021/03/27 02:48:52;;;;;;;19.25;3.15;;;;;;;;;;4988122;28;20041;-70
2021/03/27 02:51:18;;;;;;;18.25;3.50;;;;;;;;;;4982123;28;20508;-72
2021/03/27 02:54:02;;;;;;;18.02;3.03;;;;;;;;;;4982139;28;20034;-71
2021/03/27 02:56:31;;;;;;;13.88;2.17;;;;;;;;;;4978252;28;20047;-72
2021/03/27 02:59:03;;;;;;;14.48;2.90;;;;;;;;;;4986596;28;20022;-71
2021/03/27 03:01:38;;;;;;;12.80;2.17;;;;;;;;;;4986665;28;20030;-70
2021/03/27 03:04:18;;;;;;;19.38;2.70;;;;;;;;;;4984289;28;20120;-71
2021/03/27 03:06:50;;;;;;;20.52;2.95;;;;;;;;;;4984361;28;20714;-70
2021/03/27 03:09:27;;;;;;;17.08;2.88;;;;;;;;;;4979306;28;20161;-71
2021/03/27 03:11:59;;;;;;;17.40;2.63;;;;;;;;;;4981771;28;20046;-67
2021/03/27 03:14:25;;;;;;;;;;;;;;;;;;4986298;28;20515;-72
2021/03/27 03:17:20;;;;;;;25.00;3.45;;;;;;;;;;4976706;28;19910;-71
2021/03/27 03:19:47;;;;;;;29.70;4.30;;;;;;;;;;4974562;28;20604;-71
2021/03/27 03:22:14;;;;;;;12.98;3.17;;;;;;;;;;4985491;28;20507;-72
2021/03/27 03:24:43;;;;;;;20.25;3.83;;;;;;;;;;4993036;28;20038;-70
2021/03/27 03:27:24;;;;;;;19.52;3.78;;;;;;;;;;4992117;28;20046;-71
2021/03/27 03:30:02;;;;;;;23.83;3.50;;;;;;;;;;4987938;28;20035;-72
2021/03/27 03:32:28;;;;;;;18.52;3.67;;;;;;;;;;4992392;28;20567;-72
2021/03/27 03:35:00;;;;;;;23.33;2.72;;;;;;;;;;4984194;28;20065;-71
2021/03/27 03:37:26;;;;;;;;;;;;;;;;;;4982865;28;20027;-70
2021/03/27 03:40:08;;;;;;;15.98;1.77;;;;;;;;;;4992364;28;19937;-68
2021/03/27 03:42:53;;;;;;;11.05;2.00;;;;;;;;;;4993036;28;20022;-71
2021/03/27 03:45:24;;;;;;;6.63;1.10;;;;;;;;;;4977955;28;20081;-70
2021/03/27 03:47:50;;;;;;;;;;;;;;;;;;4991483;28;20500;-73
2021/03/27 03:50:19;;;;;;;17.08;2.25;;;;;;;;;;4987979;28;19992;-73
2021/03/27 03:52:52;;;;;;;12.65;1.42;;;;;;;;;;4990675;28;20034;-74
2021/03/27 03:55:30;;;;;;;9.25;2.05;;;;;;;;;;4990001;28;20582;-75
2021/03/27 03:58:15;;;;;;;13.45;2.00;;;;;;;;;;4985988;28;20126;-73
2021/03/27 04:00:45;;;;;;;16.65;1.20;;;;;;;;;;4987394;28;20066;-72
2021/03/27 04:03:37;;;;;;;17.85;3.55;;;;;;;;;;4988575;28;20554;-73
2021/03/27 04:06:05;;;;;;;18.88;3.00;;;;;;;;;;4980559;28;20050;-72
2021/03/27 04:08:31;;;;;;;13.38;2.25;;;;;;;;;;4991819;28;20031;-70
2021/03/27 04:11:00;;;;;;;13.77;3.38;;;;;;;;;;4993818;28;20031;-70
2021/03/27 04:13:30;;;;;;;14.50;3.28;;;;;;;;;;4989693;28;20036;-71
2021/03/27 04:16:05;;;;;;;10.13;1.58;;;;;;;;;;4986436;28;20452;-71
2021/03/27 04:18:45;;;;;;;18.38;3.30;;;;;;;;;;4991183;28;20022;-69
2021/03/27 04:21:13;;;;;;;16.45;2.60;;;;;;;;;;4991422;28;20061;-70
2021/03/27 04:23:47;;;;;;;22.52;3.20;;;;;;;;;;4987297;28;20031;-71
2021/03/27 04:26:27;;;;;;;15.90;2.92;;;;;;;;;;4979306;28;20062;-71
2021/03/27 04:28:59;;;;;;;18.73;2.78;;;;;;;;;;4980800;28;20058;-70
2021/03/27 04:31:25;;;;;;;;;;;;;;;;;;4991164;28;20113;-70
2021/03/27 04:34:09;;;;;;;18.70;2.75;;;;;;;;;;4986842;28;20407;-72
2021/03/27 04:36:39;;;;;;;20.50;4.45;;;;;;;;;;4988797;28;20109;-70
2021/03/27 04:39:25;;;;;;;18.40;3.13;;;;;;;;;;4981723;28;20488;-71
2021/03/27 04:42:00;;;;;;;26.67;4.07;;;;;;;;;;4991056;28;20492;-71
2021/03/27 04:44:44;;;;;;;24.05;3.28;;;;;;;;;;4992551;28;20030;-70
2021/03/27 04:47:17;;;;;;;15.35;3.38;;;;;;;;;;4977510;28;20412;-71
2021/03/27 04:49:46;;;;;;;25.80;3.55;;;;;;;;;;4986676;28;20031;-71
2021/03/27 04:52:20;;;;;;;23.50;4.80;;;;;;;;;;4987678;28;20082;-70
2021/03/27 04:54:49;;;;;;;21.45;3.22;;;;;;;;;;4980056;28;20043;-70
2021/03/27 04:57:34;;;;;;;22.23;2.95;;;;;;;;;;4980882;28;20026;-72
2021/03/27 05:00:09;;;;;;;34.53;3.63;;;;;;;;;;4993060;28;20023;-71
2021/03/27 05:02:35;;;;;;;17.17;3.35;;;;;;;;;;4990379;28;20022;-71
2021/03/27 05:05:04;;;;;;;26.30;3.35;;;;;;;;;;4980861;28;20405;-70
2021/03/27 05:07:46;;;;;;;31.75;5.25;;;;;;;;;;4988838;28;20643;-71
2021/03/27 05:10:32;;;;;;;16.48;2.70;;;;;;;;;;4991319;28;20045;-68
2021/03/27 05:13:15;;;;;;;23.02;2.20;;;;;;;;;;4982931;28;20086;-71
2021/03/27 05:15:47;;;;;;;27.25;4.32;;;;;;;;;;4990917;28;20089;-71
2021/03/27 05:18:13;;;;;;;;;;;;;;;;;;4989451;28;20038;-71
2021/03/27 05:20:40;;;;;;;22.52;3.78;;;;;;;;;;4988988;28;20307;-70
2021/03/27 05:23:05;;;;;;;33.05;3.58;;;;;;;;;;4982489;28;20026;-68
2021/03/27 05:25:50;;;;;;;24.80;4.07;;;;;;;;;;4985769;28;20030;-71
2021/03/27 05:28:22;;;;;;;28.15;4.50;;;;;;;;;;4988583;28;20030;-71
2021/03/27 05:30:48;;;;;;;24.83;3.35;;;;;;;;;;4990287;28;20033;-70
2021/03/27 05:33:27;;;;;;;25.77;4.70;;;;;;;;;;4988261;28;20023;-70
2021/03/27 05:35:53;;;;;;;16.20;3.53;;;;;;;;;;4980491;28;20026;-70
2021/03/27 05:38:25;;;;;;;21.65;3.45;;;;;;;;;;4988152;28;20019;-69
2021/03/27 05:40:54;;;;;;;16.13;2.92;;;;;;;;;;4990905;28;20038;-70
2021/03/27 05:43:20;;;;;;;16.35;3.42;;;;;;;;;;4980195;28;20027;-72
2021/03/27 05:45:46;;;;;;;27.58;4.40;;;;;;;;;;4993535;28;20042;-71
2021/03/27 05:48:25;;;;;;;15.57;3.60;;;;;;;;;;4988315;28;20092;-70
2021/03/27 05:51:14;;;;;;;26.05;3.67;;;;;;;;;;4985017;28;20117;-71
2021/03/27 05:53:59;;;;;;;26.35;5.88;;;;;;;;;;4988938;28;20034;-71
2021/03/27 05:56:28;;;;;;;31.70;3.85;;;;;;;;;;4982522;28;20045;-72
2021/03/27 05:59:00;;;;;;;13.00;1.77;;;;;;;;;;4983368;28;20037;-71
2021/03/27 06:01:45;;;;;;;17.48;3.70;;;;;;;;;;4985139;28;20038;-72
2021/03/27 06:04:11;;;;;;;17.30;2.80;;;;;;;;;;4988865;28;20062;-69
2021/03/27 06:06:37;;;;;;;25.20;3.55;;;;;;;;;;4985653;28;20484;-69
2021/03/27 06:09:12;;;;;;;21.48;4.82;;;;;;;;;;4982219;28;20093;-71
2021/03/27 06:11:38;;;;;;;22.73;3.97;;;;;;;;;;4975196;28;20033;-71
2021/03/27 06:14:23;;;;;;;28.50;4.47;;;;;;;;;;4988778;28;20030;-72
2021/03/27 06:16:59;;;;;;;17.60;3.10;;;;;;;;;;4979181;28;20656;-72
2021/03/27 06:19:40;;;;;;;19.48;3.20;;;;;;;;;;5007924;28;20021;-71
2021/03/27 06:22:15;;;;;;;23.23;3.20;;;;;;;;;;4979941;28;20041;-70
2021/03/27 06:25:02;;;;;;;20.23;3.47;;;;;;;;;;4981482;28;20034;-70
2021/03/27 06:27:31;;;;;;;15.43;3.05;;;;;;;;;;4974715;28;20023;-70
2021/03/27 06:30:13;;;;;;;13.35;2.35;;;;;;;;;;4984369;28;20034;-70
2021/03/27 06:32:59;;;;;;;26.83;3.65;;;;;;;;;;4981922;28;20073;-70
2021/03/27 06:35:33;;;;;;;32.42;4.63;;;;;;;;;;4978540;28;20022;-70
2021/03/27 06:38:18;;;;;;;21.50;2.83;;;;;;;;;;4988957;28;20022;-69
2021/03/27 06:41:00;;;;;;;25.42;3.17;;;;;;;;;;4986228;28;20030;-71
2021/03/27 06:43:45;;;;;;;18.75;3.25;;;;;;;;;;4984426;28;20080;-70
2021/03/27 06:46:29;;;;;;;22.02;3.35;;;;;;;;;;4982345;28;20078;-70
2021/03/27 06:49:14;;;;;;;23.70;3.50;;;;;;;;;;4978200;28;20523;-69
2021/03/27 06:51:55;;;;;;;15.98;3.20;;;;;;;;;;4973353;28;20080;-68
2021/03/27 06:54:34;;;;;;;23.20;4.28;;;;;;;;;;4976918;28;20042;-69
2021/03/27 06:57:19;;;;;;;31.30;4.95;;;;;;;;;;4988364;28;20053;-70
2021/03/27 06:59:48;;;;;;;20.25;3.03;;;;;;;;;;4985694;28;20025;-68
2021/03/27 07:02:27;;;;;;;21.45;3.97;;;;;;;;;;4983781;28;20034;-68
2021/03/27 07:04:53;;;;;;;23.10;3.53;;;;;;;;;;4975232;28;20026;-71
2021/03/27 07:07:19;;;;;;;23.45;2.78;;;;;;;;;;4969975;28;20085;-70
2021/03/27 07:09:45;;;;;;;34.05;5.03;;;;;;;;;;4982100;28;20492;-70
2021/03/27 07:12:25;;;;;;;21.45;3.00;;;;;;;;;;4976284;28;20049;-69
2021/03/27 07:15:10;;;;;;;18.17;2.90;;;;;;;;;;4976462;28;20015;-70
2021/03/27 07:17:44;;;;;;;13.88;2.83;;;;;;;;;;4975331;28;20031;-69
2021/03/27 07:20:24;;;;;;;21.40;4.50;;;;;;;;;;4982409;28;20085;-69
2021/03/27 07:23:00;;;;;;;20.25;3.13;;;;;;;;;;4984812;28;20444;-71
2021/03/27 07:25:45;;;;;;;26.73;3.25;;;;;;;;;;4981724;28;20037;-71
2021/03/27 07:28:30;;;;;;;21.65;3.20;;;;;;;;;;4975152;28;20049;-70
2021/03/27 07:31:05;;;;;;;20.60;3.65;;;;;;;;;;4974884;28;20033;-69
2021/03/27 07:33:50;;;;;;;14.73;3.00;;;;;;;;;;4972469;28;20668;-70
2021/03/27 07:36:34;;;;;;;20.60;3.45;;;;;;;;;;4974409;28;20022;-71
2021/03/27 07:39:16;;;;;;;25.45;3.25;;;;;;;;;;4973176;28;20033;-69
2021/03/27 07:42:10;;;;;;;27.98;2.85;;;;;;;;;;4972007;28;20425;-72
2021/03/27 07:44:40;;;;;;;24.85;4.47;;;;;;;;;;4978897;28;20085;-71
2021/03/27 07:47:09;;;;;;;17.52;2.78;;;;;;;;;;4975148;28;20023;-70
2021/03/27 07:49:54;;;;;;;24.58;3.78;;;;;;;;;;4975464;28;20026;-69
2021/03/27 07:52:38;;;;;;;15.10;2.88;;;;;;;;;;4977909;28;20026;-69
2021/03/27 07:55:23;;;;;;;18.33;2.78;;;;;;;;;;4982377;28;20054;-70
2021/03/27 07:57:56;;;;;;;14.80;3.65;;;;;;;;;;4975477;28;20038;-69
2021/03/27 08:00:41;;;;;;;21.50;3.42;;;;;;;;;;4981342;28;20022;-72
2021/03/27 08:03:26;;;;;;;13.82;3.05;;;;;;;;;;4987653;28;20026;-68
2021/03/27 08:05:52;;;;;;;29.67;5.28;;;;;;;;;;4974186;28;20027;-69
2021/03/27 08:08:27;;;;;;;12.18;2.35;;;;;;;;;;4983676;28;20019;-69
2021/03/27 08:10:53;;;;;;;31.65;3.67;;;;;;;;;;4989219;28;20571;-70
2021/03/27 08:13:25;;;;;;;21.42;2.80;;;;;;;;;;4984621;28;20027;-68
2021/03/27 08:15:54;;;;;;;20.85;3.88;;;;;;;;;;4993011;28;20070;-68
2021/03/27 08:18:53;;;;;;;23.13;3.33;;;;;;;;;;4984841;28;20113;-68
2021/03/27 08:21:37;;;;;;;23.55;3.55;;;;;;;;;;4997485;28;20053;-69
2021/03/27 08:24:09;;;;;;;18.77;4.03;;;;;;;;;;4987771;28;20035;-68
2021/03/27 08:26:44;;;;;;;25.90;3.17;;;;;;;;;;4979824;28;20056;-69
2021/03/27 08:29:10;;;;;;;12.98;1.73;;;;;;;;;;4982436;28;20025;-69
2021/03/27 08:31:39;;;;;;;20.48;2.88;;;;;;;;;;4979127;28;20031;-69
2021/03/27 08:34:41;;;;;;;18.60;3.47;;;;;;;;;;4986237;28;20023;-69
2021/03/27 08:37:26;;;;;;;15.00;2.92;;;;;;;;;;4918015;29;20024;-67
2021/03/27 08:40:07;;;;;;;10.15;1.73;;;;;;;;;;4981215;28;20035;-69
2021/03/27 08:42:52;;;;;;;17.35;2.97;;;;;;;;;;4984139;28;20042;-68
2021/03/27 08:45:24;;;;;;;16.13;3.20;;;;;;;;;;4987300;28;20041;-68
2021/03/27 08:47:50;;;;;;;;;;;;;;;;;;4987183;28;20033;-69
2021/03/27 08:50:36;;;;;;;18.60;2.50;;;;;;;;;;4985394;28;20020;-68
2021/03/27 08:53:20;;;;;;;12.93;2.67;;;;;;;;;;4981827;28;20041;-69
2021/03/27 08:56:05;;;;;;;16.50;3.17;;;;;;;;;;4987883;28;20047;-68
2021/03/27 08:58:31;;;;;;;30.52;6.45;;;;;;;;;;4985142;28;20054;-68
2021/03/27 09:01:21;;;;;;;12.20;2.22;;;;;;;;;;4980880;28;20031;-70
2021/03/27 09:04:05;;;;;;;19.98;3.55;;;;;;;;;;4982973;28;20038;-68
2021/03/27 09:06:43;;;;;;;12.88;1.95;;;;;;;;;;4983280;28;20493;-67
2021/03/27 09:09:25;;;;;;;19.50;3.72;;;;;;;;;;4980719;28;20096;-68
2021/03/27 09:11:51;;;;;;;28.83;3.47;;;;;;;;;;4989112;28;20034;-68
2021/03/27 09:14:28;;;;;;;29.13;4.25;;;;;;;;;;4986095;28;20026;-69
2021/03/27 09:17:14;;;;;;;15.82;3.53;;;;;;;;;;4984291;28;20023;-69
2021/03/27 09:19:55;;;;;;;9.73;2.25;;;;;;;;;;4988716;28;20118;-67
2021/03/27 09:22:37;;;;;;;16.13;2.10;;;;;;;;;;4990626;28;20018;-68
2021/03/27 09:25:13;;;;;;;11.15;2.67;;;;;;;;;;4982715;28;20280;-69
2021/03/27 09:27:56;;;;;;;15.77;2.50;;;;;;;;;;4980718;28;20081;-68
2021/03/27 09:30:41;;;;;;;15.27;2.35;;;;;;;;;;4980436;28;20116;-68
2021/03/27 09:33:16;;;;;;;24.00;2.97;;;;;;;;;;4983545;28;20041;-69
2021/03/27 09:35:59;;;;;;;22.80;3.63;;;;;;;;;;4981197;28;20062;-68
2021/03/27 09:38:32;;;;;;;19.58;3.08;;;;;;;;;;4975445;28;20023;-69
2021/03/27 09:41:10;;;;;;;24.35;3.30;;;;;;;;;;4979307;28;20035;-69
2021/03/27 09:43:36;;;;;;;9.93;2.42;;;;;;;;;;4978766;28;20121;-68
2021/03/27 09:46:14;;;;;;;24.95;3.38;;;;;;;;;;4978463;28;20421;-69
2021/03/27 09:48:43;;;;;;;16.40;2.83;;;;;;;;;;4974762;28;20023;-68
2021/03/27 09:51:28;;;;;;;15.05;2.30;;;;;;;;;;4975247;28;20038;-69
2021/03/27 09:54:03;;;;;;;14.30;2.90;;;;;;;;;;4985797;28;20027;-69
2021/03/27 09:56:40;;;;;;;22.65;2.80;;;;;;;;;;4985087;28;20125;-68
2021/03/27 09:59:21;;;;;;;21.70;2.97;;;;;;;;;;5002281;23;20041;-83
2021/03/27 10:01:47;;;;;;;8.90;2.15;;;;;;;;;;5016003;28;20034;-82
2021/03/27 10:04:20;;;;;;;23.42;3.08;;;;;;;;;;5017222;28;20018;-81
2021/03/27 10:07:05;;;;;;;22.42;2.53;;;;;;;;;;5002429;28;20056;-81
2021/03/27 10:09:40;;;;;;;23.27;3.70;;;;;;;;;;5024986;28;20112;-86
2021/03/27 10:12:11;;;;;;;25.33;4.00;;;;;;;;;;5016115;28;20408;-83
2021/03/27 10:25:18;;;;;;;23.05;4.38;;;;;;;;;;3008729;23;20054;-94
2021/03/27 10:27:48;;;;;;;19.90;3.17;;;;;;;;;;5011278;28;20034;-95
2021/03/27 10:30:26;;;;;;;21.52;3.70;;;;;;;;;;5036814;23;20069;-68
2021/03/27 10:32:52;;;;;;;18.33;3.40;;;;;;;;;;5005983;28;20029;-69
2021/03/27 10:35:24;;;;;;;18.52;2.65;;;;;;;;;;5021824;28;20063;-67
2021/03/27 10:38:08;;;;;;;16.02;2.25;;;;;;;;;;5021720;28;20021;-68
2021/03/27 10:40:39;;;;;;;24.23;4.63;;;;;;;;;;5015308;28;20033;-68
2021/03/27 10:43:24;;;;;;;17.88;2.85;;;;;;;;;;5029345;28;20051;-68
2021/03/27 10:45:53;;;;;;;17.77;2.80;;;;;;;;;;5018238;28;20026;-67
2021/03/27 10:48:22;;;;;;;26.70;4.10;;;;;;;;;;5005170;28;20041;-68
2021/03/27 10:51:07;;;;;;;15.93;2.95;;;;;;;;;;5010201;28;20037;-67
2021/03/27 10:53:51;;;;;;;15.60;2.80;;;;;;;;;;5029027;28;20025;-68
2021/03/27 10:56:36;;;;;;;19.15;2.60;;;;;;;;;;5001760;28;20634;-67
2021/03/27 10:59:08;;;;;;;8.30;1.95;;;;;;;;;;5021474;28;20022;-67
2021/03/27 11:01:34;;;;;;;;;;;;;;;;;;5002765;28;20033;-67
2021/03/27 11:04:19;;;;;;;15.88;2.78;;;;;;;;;;5020400;28;20357;-67
2021/03/27 11:06:45;;;;;;;10.80;2.80;;;;;;;;;;5013142;28;20033;-67
2021/03/27 11:09:11;;;;;;;17.13;2.75;;;;;;;;;;5017163;28;20095;-67
2021/03/27 11:11:45;;;;;;;18.73;3.78;;;;;;;;;;5010611;28;20090;-67
2021/03/27 11:14:26;;;;;;;14.13;2.15;;;;;;;;;;5016593;28;20310;-68
2021/03/27 11:16:52;;;;;;;19.33;2.92;;;;;;;;;;5027503;28;20032;-66
2021/03/27 11:19:21;;;;;;;19.83;2.53;;;;;;;;;;5023319;28;20025;-67
2021/03/27 11:22:07;;;;;;;7.22;2.17;;;;;;;;;;5017876;28;20029;-68
2021/03/27 11:24:37;;;;;;;17.98;2.95;;;;;;;;;;5020060;28;20079;-68
2021/03/27 11:27:12;;;;;;;22.70;3.90;;;;;;;;;;5021425;28;20187;-68
2021/03/27 11:29:43;;;;;;;17.60;3.05;;;;;;;;;;5024270;28;20167;-68
2021/03/27 11:32:11;;;;;;;26.10;3.63;;;;;;;;;;5024639;28;20038;-68
2021/03/27 11:34:56;;;;;;;23.92;2.85;;;;;;;;;;5008230;28;20028;-68
2021/03/27 11:37:35;;;;;;;19.35;2.67;;;;;;;;;;5001794;28;20488;-67
2021/03/27 11:40:05;;;;;;;23.05;3.03;;;;;;;;;;5011352;28;20213;-67
2021/03/27 11:42:50;;;;;;;23.10;3.17;;;;;;;;;;5011933;28;20045;-67
2021/03/27 11:45:23;;;;;;;17.67;2.75;;;;;;;;;;5016637;28;20053;-67
2021/03/27 11:47:52;;;;;;;15.45;2.13;;;;;;;;;;5020338;28;20033;-68
2021/03/27 11:50:18;;;;;;;18.42;2.33;;;;;;;;;;5018741;28;20025;-68
2021/03/27 11:52:48;;;;;;;18.63;2.80;;;;;;;;;;5019563;28;20033;-67
2021/03/27 11:55:17;;;;;;;16.85;2.92;;;;;;;;;;5016647;28;20030;-67
2021/03/27 11:57:43;;;;;;;27.17;3.60;;;;;;;;;;5017955;28;20083;-67
2021/03/27 12:03:13;;;;;;;12.75;2.20;;;;;;;;;;5015130;28;20079;-66
2021/03/27 12:05:47;;;;;;;15.75;2.67;;;;;;;;;;5015210;28;20030;-66
2021/03/27 12:08:23;;;;;;;25.83;2.47;;;;;;;;;;5021875;28;20025;-66
2021/03/27 12:11:09;;;;;;;12.18;2.45;;;;;;;;;;5019460;28;20029;-69
2021/03/27 12:13:38;;;;;;;12.77;2.80;;;;;;;;;;5006604;28;20673;-67
2021/03/27 12:16:11;;;;;;;18.35;2.95;;;;;;;;;;5018391;28;20096;-68
2021/03/27 12:18:46;;;;;;;11.88;2.05;;;;;;;;;;5018032;28;20034;-68
2021/03/27 12:21:14;;;;;;;15.63;2.60;;;;;;;;;;5018808;28;20495;-68
2021/03/27 12:24:09;;;;;;;21.52;3.17;;;;;;;;;;5004851;28;20045;-67
2021/03/27 12:26:44;;;;;;;19.52;3.00;;;;;;;;;;5001827;28;20044;-68
2021/03/27 12:29:20;;;;;;;13.52;2.13;;;;;;;;;;5020546;28;20048;-68
2021/03/27 12:31:55;;;;;;;24.00;2.53;;;;;;;;;;5020920;28;20026;-68
2021/03/27 12:34:21;;;;;;;20.27;2.92;;;;;;;;;;5019884;28;20108;-67
2021/03/27 12:37:06;;;;;;;16.85;2.25;;;;;;;;;;5020571;28;20034;-68
2021/03/27 12:39:51;;;;;;;17.00;2.70;;;;;;;;;;4997142;28;20053;-68
2021/03/27 12:42:23;;;;;;;10.43;2.58;;;;;;;;;;5019510;28;20153;-68
2021/03/27 12:44:54;;;;;;;18.85;3.03;;;;;;;;;;5018043;28;20032;-68
2021/03/27 12:47:20;;;;;;;;;;;;;;;;;;5019662;28;20025;-68
2021/03/27 12:49:55;;;;;;;16.17;2.25;;;;;;;;;;5013207;28;20382;-68
2021/03/27 12:52:42;;;;;;;20.00;3.00;;;;;;;;;;5004164;28;20037;-68
2021/03/27 12:55:27;;;;;;;13.55;2.45;;;;;;;;;;5013590;28;20018;-68
2021/03/27 12:58:04;;;;;;;17.33;2.92;;;;;;;;;;5018526;28;20403;-68
2021/03/27 13:00:30;;;;;;;30.52;2.47;;;;;;;;;;5018491;28;20367;-67
2021/03/27 13:03:15;;;;;;;13.82;2.47;;;;;;;;;;5014412;28;20219;-68
2021/03/27 13:05:50;;;;;;;14.05;2.47;;;;;;;;;;5012460;28;20108;-68
2021/03/27 13:08:28;;;;;;;16.15;2.88;;;;;;;;;;5018820;28;20022;-68
2021/03/27 13:10:54;;;;;;;12.52;2.38;;;;;;;;;;5023987;28;20069;-68
2021/03/27 13:13:39;;;;;;;7.88;2.40;;;;;;;;;;5016655;28;20018;-68
2021/03/27 13:16:16;;;;;;;19.30;3.28;;;;;;;;;;5015646;28;20439;-68
2021/03/27 13:18:45;;;;;;;16.63;2.63;;;;;;;;;;5017056;28;20026;-68
2021/03/27 13:21:17;;;;;;;15.82;2.67;;;;;;;;;;5017230;28;20049;-68
2021/03/27 13:23:43;;;;;;;16.08;3.97;;;;;;;;;;5015716;28;20025;-68
2021/03/27 13:26:17;;;;;;;9.40;2.58;;;;;;;;;;5019073;28;20029;-68
2021/03/27 13:28:47;;;;;;;19.98;2.97;;;;;;;;;;5019732;28;20382;-68
2021/03/27 13:31:15;;;;;;;14.27;2.72;;;;;;;;;;5019086;28;20121;-68
2021/03/27 13:34:00;;;;;;;17.77;3.20;;;;;;;;;;5018525;28;20034;-68
2021/03/27 13:36:26;;;;;;;19.67;4.07;;;;;;;;;;5010844;28;20105;-68
2021/03/27 13:38:56;;;;;;;16.35;2.75;;;;;;;;;;5003271;28;20034;-68
2021/03/27 13:41:37;;;;;;;15.52;2.30;;;;;;;;;;5019954;28;20063;-68
2021/03/27 13:44:06;;;;;;;15.43;2.38;;;;;;;;;;5016284;28;20107;-67
2021/03/27 13:47:02;;;;;;;16.65;2.20;;;;;;;;;;5014634;28;20030;-68
2021/03/27 13:49:35;;;;;;;10.10;2.47;;;;;;;;;;4992551;28;20550;-67
2021/03/27 13:52:09;;;;;;;13.02;2.60;;;;;;;;;;5009382;28;20021;-68
2021/03/27 13:54:43;;;;;;;14.77;2.55;;;;;;;;;;4995816;28;20116;-68
2021/03/27 13:57:34;;;;;;;23.35;3.00;;;;;;;;;;5013952;28;20079;-68
2021/03/27 14:00:16;;;;;;;20.75;2.20;;;;;;;;;;5003203;28;20166;-69
2021/03/27 14:02:48;;;;;;;15.93;3.17;;;;;;;;;;4997970;28;20014;-68
2021/03/27 14:05:33;;;;;;;12.65;2.08;;;;;;;;;;5014544;28;20096;-68
2021/03/27 14:08:04;;;;;;;18.65;3.15;;;;;;;;;;4996269;28;20119;-67
2021/03/27 14:10:45;;;;;;;12.00;2.03;;;;;;;;;;5019119;28;20479;-68
2021/03/27 14:13:26;;;;;;;15.45;2.58;;;;;;;;;;5022352;28;20023;-68
2021/03/27 14:16:02;;;;;;;17.40;2.65;;;;;;;;;;5001386;28;20032;-67
2021/03/27 14:18:34;;;;;;;18.60;2.45;;;;;;;;;;5001532;28;20025;-67
2021/03/27 14:21:03;;;;;;;20.52;3.45;;;;;;;;;;5021978;28;20038;-69
2021/03/27 14:23:53;;;;;;;25.33;3.15;;;;;;;;;;5018538;28;20116;-70
2021/03/27 14:26:25;;;;;;;13.52;3.25;;;;;;;;;;4982610;28;20197;-68
2021/03/27 14:28:57;;;;;;;8.05;1.27;;;;;;;;;;5018687;28;20029;-68
2021/03/27 14:31:29;;;;;;;13.07;2.47;;;;;;;;;;5019167;28;20108;-70
2021/03/27 14:33:58;;;;;;;20.40;2.33;;;;;;;;;;5015722;28;20407;-68
2021/03/27 14:36:38;;;;;;;15.05;3.35;;;;;;;;;;4998513;28;20014;-68
2021/03/27 14:39:07;;;;;;;10.80;2.72;;;;;;;;;;5020392;28;20068;-67
2021/03/27 14:41:52;;;;;;;12.30;2.67;;;;;;;;;;5019272;28;20037;-68
2021/03/27 14:44:21;;;;;;;11.02;2.00;;;;;;;;;;5016471;28;20565;-68
2021/03/27 14:47:06;;;;;;;16.88;3.17;;;;;;;;;;5020882;28;20061;-68
2021/03/27 14:49:44;;;;;;;12.70;2.20;;;;;;;;;;5014135;28;20032;-68
2021/03/27 14:52:17;;;;;;;12.20;1.80;;;;;;;;;;5019370;28;20031;-68
2021/03/27 14:55:06;;;;;;;13.85;1.63;;;;;;;;;;5013018;28;20041;-68
2021/03/27 14:57:56;;;;;;;16.17;2.40;;;;;;;;;;5018290;28;20039;-68
2021/03/27 15:00:22;;;;;;;13.70;2.30;;;;;;;;;;5015368;28;20037;-68
2021/03/27 15:02:57;;;;;;;7.18;1.42;;;;;;;;;;5023183;28;20502;-68
2021/03/27 15:05:29;;;;;;;8.70;1.52;;;;;;;;;;5020162;28;20049;-68
2021/03/27 15:07:55;;;;;;;;;;;;;;;;;;5021492;28;20444;-68
2021/03/27 15:10:27;;;;;;;8.55;1.95;;;;;;;;;;5022582;28;19956;-68
2021/03/27 15:12:53;;;;;;;;;;;;;;;;;;5025705;28;20479;-67
2021/03/27 15:15:27;;;;;;;19.73;2.75;;;;;;;;;;5003892;28;19964;-69
2021/03/27 15:18:10;;;;;;;20.33;3.30;;;;;;;;;;5022146;28;20056;-68
2021/03/27 15:20:41;;;;;;;13.63;2.25;;;;;;;;;;5029644;28;20026;-69
2021/03/27 15:23:13;;;;;;;17.35;2.35;;;;;;;;;;5031981;28;20021;-65
2021/03/27 15:28:40;;;;;;;14.25;2.90;;;;;;;;;;5023990;28;20111;-68
2021/03/27 15:31:06;;;;;;;20.73;2.85;;;;;;;;;;5012062;28;20491;-68
2021/03/27 15:33:41;;;;;;;23.30;2.97;;;;;;;;;;5028802;28;20025;-68
2021/03/27 15:36:20;;;;;;;26.52;4.20;;;;;;;;;;5022652;28;20035;-69